createdAt,value
2022-10-09T00:01:23.455Z,11.90
2022-10-09T00:03:52.881Z,12.00
2022-10-09T00:06:23.260Z,12.10
2022-10-09T00:08:50.949Z,12.20
2022-10-09T00:11:24.586Z,12.10
2022-10-09T00:13:52.946Z,12.10
2022-10-09T00:16:22.875Z,12.10
2022-10-09T00:18:51.201Z,12.10
2022-10-09T00:21:23.558Z,12.20
2022-10-09T00:23:52.271Z,12.10
2022-10-09T00:26:20.164Z,12.10
2022-10-09T00:28:47.466Z,12.20
2022-10-09T00:31:16.481Z,12.20
2022-10-09T00:33:43.882Z,12.20
2022-10-09T00:36:22.811Z,12.20
2022-10-09T00:38:50.653Z,12.20
2022-10-09T00:41:27.246Z,12.10
2022-10-09T00:43:57.759Z,12.10
2022-10-09T00:46:37.967Z,12.00
2022-10-09T00:49:29.117Z,12.00
2022-10-09T00:52:00.036Z,11.90
2022-10-09T00:54:31.607Z,11.80
2022-10-09T00:56:59.309Z,11.70
2022-10-09T00:59:26.883Z,11.60
2022-10-09T01:01:54.392Z,11.50
2022-10-09T01:04:21.576Z,11.40
2022-10-09T01:07:29.524Z,11.40
2022-10-09T01:10:18.569Z,11.40
2022-10-09T01:13:28.487Z,11.30
2022-10-09T01:16:01.720Z,11.30
2022-10-09T01:18:49.764Z,11.30
2022-10-09T01:21:19.697Z,11.30
2022-10-09T01:23:58.494Z,11.40
2022-10-09T01:26:44.392Z,11.30
2022-10-09T01:29:13.267Z,11.30
2022-10-09T01:31:44.184Z,11.40
2022-10-09T01:34:13.980Z,11.40
2022-10-09T01:36:43.293Z,11.30
2022-10-09T01:39:18.015Z,11.30
2022-10-09T01:41:48.068Z,11.40
2022-10-09T01:44:17.036Z,11.30
2022-10-09T01:46:44.245Z,11.10
2022-10-09T01:49:25.243Z,11.10
2022-10-09T01:52:02.084Z,11.10
2022-10-09T01:54:50.336Z,11.10
2022-10-09T01:57:26.976Z,11.10
2022-10-09T01:59:57.583Z,11.00
2022-10-09T02:02:25.598Z,11.00
2022-10-09T02:04:53.901Z,11.00
2022-10-09T02:07:22.790Z,11.00
2022-10-09T02:09:50.233Z,10.90
2022-10-09T02:12:18.870Z,10.90
2022-10-09T02:14:46.062Z,10.90
2022-10-09T02:17:18.109Z,10.90
2022-10-09T02:19:54.759Z,10.80
2022-10-09T02:22:26.056Z,10.80
2022-10-09T02:24:53.525Z,10.70
2022-10-09T02:27:21.896Z,10.60
2022-10-09T02:29:50.071Z,10.50
2022-10-09T02:32:17.709Z,10.50
2022-10-09T02:34:45.050Z,10.40
2022-10-09T02:37:13.430Z,10.30
2022-10-09T02:39:43.049Z,10.30
2022-10-09T02:42:10.419Z,10.30
2022-10-09T02:44:37.655Z,10.20
2022-10-09T02:47:04.731Z,10.20
2022-10-09T02:49:31.863Z,10.20
2022-10-09T02:51:59.037Z,10.10
2022-10-09T02:54:25.930Z,10.10
2022-10-09T02:56:54.003Z,10.00
2022-10-09T02:59:21.459Z,10.00
2022-10-09T03:01:48.680Z,10.00
2022-10-09T03:04:15.874Z,10.00
2022-10-09T03:06:42.981Z,9.90
2022-10-09T03:09:10.096Z,10.00
2022-10-09T03:11:37.036Z,10.00
2022-10-09T03:14:04.168Z,9.90
2022-10-09T03:16:31.199Z,10.00
2022-10-09T03:18:58.662Z,9.90
2022-10-09T03:21:27.730Z,9.80
2022-10-09T03:23:55.349Z,9.80
2022-10-09T03:26:26.891Z,9.80
2022-10-09T03:28:55.485Z,9.80
2022-10-09T03:31:51.847Z,9.80
2022-10-09T03:34:13.066Z,9.70
2022-10-09T03:36:40.403Z,9.70
2022-10-09T03:39:07.492Z,9.70
2022-10-09T03:41:34.731Z,9.70
2022-10-09T03:44:01.682Z,9.70
2022-10-09T03:46:28.819Z,9.70
2022-10-09T03:48:56.076Z,9.70
2022-10-09T03:51:23.066Z,9.70
2022-10-09T03:53:50.106Z,9.70
2022-10-09T03:56:17.375Z,9.60
2022-10-09T03:58:44.307Z,9.60
2022-10-09T04:01:11.381Z,9.60
2022-10-09T04:03:38.673Z,9.70
2022-10-09T04:06:06.096Z,9.60
2022-10-09T04:08:33.021Z,9.70
2022-10-09T04:11:00.938Z,9.80
2022-10-09T04:13:28.272Z,9.70
2022-10-09T04:15:56.173Z,9.80
2022-10-09T04:18:23.938Z,9.70
2022-10-09T04:20:53.064Z,9.80
2022-10-09T04:23:21.386Z,9.80
2022-10-09T04:25:49.111Z,9.70
2022-10-09T04:28:16.080Z,9.70
2022-10-09T04:30:43.062Z,9.70
2022-10-09T04:33:12.996Z,9.80
2022-10-09T04:35:44.278Z,9.80
2022-10-09T04:38:12.492Z,9.80
2022-10-09T04:40:39.518Z,9.70
2022-10-09T04:43:06.547Z,9.70
2022-10-09T04:45:33.830Z,9.80
2022-10-09T04:48:00.791Z,9.90
2022-10-09T04:50:27.756Z,9.90
2022-10-09T04:52:54.994Z,9.90
2022-10-09T04:55:21.963Z,9.90
2022-10-09T04:57:48.901Z,9.90
2022-10-09T05:00:16.195Z,9.90
2022-10-09T05:02:43.130Z,9.90
2022-10-09T05:05:10.135Z,9.90
2022-10-09T05:07:39.043Z,9.90
2022-10-09T05:10:06.835Z,10.00
2022-10-09T05:12:33.849Z,9.80
2022-10-09T05:15:01.035Z,9.60
2022-10-09T05:17:28.044Z,9.70
2022-10-09T05:19:55.057Z,9.80
2022-10-09T05:22:22.420Z,9.80
2022-10-09T05:24:49.352Z,9.80
2022-10-09T05:27:16.337Z,9.70
2022-10-09T05:29:43.503Z,9.80
2022-10-09T05:32:10.529Z,9.80
2022-10-09T05:34:37.612Z,9.90
2022-10-09T05:37:05.010Z,9.80
2022-10-09T05:39:32.530Z,9.70
2022-10-09T05:41:59.487Z,9.80
2022-10-09T05:44:26.766Z,9.90
2022-10-09T05:46:53.867Z,9.90
2022-10-09T05:49:21.089Z,9.80
2022-10-09T05:51:49.895Z,9.90
2022-10-09T05:54:18.165Z,9.90
2022-10-09T05:56:46.049Z,9.90
2022-10-09T05:59:15.846Z,10.00
2022-10-09T06:01:46.653Z,10.10
2022-10-09T06:04:19.375Z,10.10
2022-10-09T06:06:50.099Z,10.20
2022-10-09T06:09:19.621Z,10.20
2022-10-09T06:11:46.804Z,10.20
2022-10-09T06:14:14.282Z,10.20
2022-10-09T06:16:43.458Z,10.30
2022-10-09T06:19:16.068Z,10.40
2022-10-09T06:21:44.240Z,10.40
2022-10-09T06:24:27.878Z,10.50
2022-10-09T06:26:55.959Z,10.40
2022-10-09T06:29:23.067Z,10.40
2022-10-09T06:31:49.993Z,10.50
2022-10-09T06:34:17.385Z,10.40
2022-10-09T06:36:44.387Z,10.50
2022-10-09T06:39:11.717Z,10.50
2022-10-09T06:41:38.936Z,10.50
2022-10-09T06:44:10.808Z,10.60
2022-10-09T06:46:41.996Z,10.50
2022-10-09T06:49:10.765Z,10.40
2022-10-09T06:51:38.260Z,10.50
2022-10-09T06:54:11.705Z,10.50
2022-10-09T06:56:38.809Z,10.50
2022-10-09T06:59:07.300Z,10.50
2022-10-09T07:01:35.256Z,10.60
2022-10-09T07:04:13.222Z,10.70
2022-10-09T07:06:44.175Z,10.50
2022-10-09T07:09:13.595Z,10.60
2022-10-09T07:11:43.534Z,10.40
2022-10-09T07:14:12.186Z,10.50
2022-10-09T07:16:41.614Z,10.60
2022-10-09T07:19:11.292Z,10.70
2022-10-09T07:21:41.931Z,10.80
2022-10-09T07:24:09.601Z,10.60
2022-10-09T07:26:39.295Z,10.70
2022-10-09T07:29:08.517Z,10.90
2022-10-09T07:31:35.743Z,10.80
2022-10-09T07:34:03.134Z,10.80
2022-10-09T07:36:30.354Z,10.90
2022-10-09T07:38:58.944Z,11.00
2022-10-09T07:41:28.849Z,11.00
2022-10-09T07:43:56.586Z,11.00
2022-10-09T07:46:27.676Z,11.10
2022-10-09T07:48:58.152Z,11.10
2022-10-09T07:51:27.419Z,11.00
2022-10-09T07:53:54.403Z,10.90
2022-10-09T07:56:26.787Z,11.00
2022-10-09T07:58:56.368Z,11.10
2022-10-09T08:01:25.282Z,11.30
2022-10-09T08:03:52.348Z,11.30
2022-10-09T08:06:20.013Z,11.50
2022-10-09T08:08:55.627Z,11.40
2022-10-09T08:11:25.373Z,11.60
2022-10-09T08:13:53.150Z,11.60
2022-10-09T08:16:23.612Z,11.60
2022-10-09T08:18:58.572Z,11.60
2022-10-09T08:21:27.903Z,11.50
2022-10-09T08:23:57.449Z,11.50
2022-10-09T08:26:26.619Z,11.50
2022-10-09T08:29:02.609Z,11.60
2022-10-09T08:31:30.233Z,11.60
2022-10-09T08:33:59.722Z,11.40
2022-10-09T08:36:27.498Z,11.50
2022-10-09T08:38:55.250Z,11.30
2022-10-09T08:41:42.817Z,11.20
2022-10-09T08:44:20.435Z,11.00
2022-10-09T08:47:19.126Z,11.10
2022-10-09T08:49:55.869Z,11.00
2022-10-09T08:52:35.116Z,11.20
2022-10-09T08:55:22.364Z,11.20
2022-10-09T08:57:55.567Z,11.20
2022-10-09T09:00:39.534Z,11.30
2022-10-09T09:03:09.344Z,11.10
2022-10-09T09:05:59.125Z,11.00
2022-10-09T09:08:26.303Z,11.00
2022-10-09T09:11:21.411Z,11.10
2022-10-09T09:13:54.755Z,11.10
2022-10-09T09:16:28.575Z,11.00
2022-10-09T09:19:29.159Z,11.10
2022-10-09T09:21:57.440Z,11.30
2022-10-09T09:24:41.362Z,11.30
2022-10-09T09:27:16.387Z,11.40
2022-10-09T09:29:58.515Z,11.40
2022-10-09T09:32:28.937Z,11.50
2022-10-09T09:35:06.857Z,11.80
2022-10-09T09:37:34.040Z,11.90
2022-10-09T09:40:35.387Z,11.90
2022-10-09T09:42:48.595Z,12.00
2022-10-09T09:45:24.411Z,11.90
2022-10-09T09:48:06.475Z,11.70
2022-10-09T09:50:52.922Z,11.60
2022-10-09T09:53:39.743Z,11.70
2022-10-09T09:56:07.557Z,11.80
2022-10-09T09:58:44.931Z,11.90
2022-10-09T10:01:20.411Z,11.90
2022-10-09T10:03:53.572Z,12.10
2022-10-09T10:06:42.066Z,12.30
2022-10-09T10:09:19.705Z,12.20
2022-10-09T10:11:58.461Z,12.00
2022-10-09T10:14:26.275Z,12.10
2022-10-09T10:16:56.567Z,11.90
2022-10-09T10:19:29.932Z,12.00
2022-10-09T10:22:03.319Z,12.10
2022-10-09T10:24:42.756Z,12.40
2022-10-09T10:27:17.937Z,12.50
2022-10-09T10:29:47.818Z,12.60
2022-10-09T10:32:35.980Z,12.30
2022-10-09T10:35:05.420Z,12.30
2022-10-09T10:37:50.806Z,12.40
2022-10-09T10:40:48.021Z,12.40
2022-10-09T10:43:21.213Z,12.20
2022-10-09T10:45:57.484Z,12.10
2022-10-09T10:48:41.730Z,12.00
2022-10-09T10:51:08.617Z,12.00
2022-10-09T10:53:50.919Z,12.10
2022-10-09T10:56:41.131Z,12.20
2022-10-09T10:59:08.243Z,12.20
2022-10-09T11:01:52.319Z,12.10
2022-10-09T11:04:48.881Z,12.00
2022-10-09T11:07:26.415Z,12.20
2022-10-09T11:10:12.317Z,12.10
2022-10-09T11:13:01.113Z,12.40
2022-10-09T11:15:45.402Z,12.60
2022-10-09T11:18:31.386Z,12.80
2022-10-09T11:21:27.974Z,12.70
2022-10-09T11:24:13.522Z,12.40
2022-10-09T11:26:49.379Z,12.30
2022-10-09T11:29:40.175Z,12.50
2022-10-09T11:32:17.378Z,12.40
2022-10-09T11:35:01.866Z,12.30
2022-10-09T11:37:35.098Z,12.20
2022-10-09T11:40:24.581Z,12.40
2022-10-09T11:42:59.254Z,12.10
2022-10-09T11:45:36.818Z,11.90
2022-10-09T11:48:18.716Z,12.00
2022-10-09T11:50:45.627Z,12.30
2022-10-09T11:53:18.769Z,12.40
2022-10-09T11:55:48.166Z,12.30
2022-10-09T11:58:25.929Z,12.50
2022-10-09T12:00:55.711Z,12.40
2022-10-09T12:03:35.862Z,12.40
2022-10-09T12:06:15.735Z,12.40
2022-10-09T12:09:03.338Z,12.50
2022-10-09T12:11:32.245Z,12.50
2022-10-09T12:14:02.748Z,12.50
2022-10-09T12:16:41.113Z,12.50
2022-10-09T12:19:23.555Z,12.50
2022-10-09T12:22:13.641Z,12.60
2022-10-09T12:24:45.195Z,12.60
2022-10-09T12:27:21.917Z,12.90
2022-10-09T12:29:55.298Z,13.10
2022-10-09T12:32:31.621Z,13.10
2022-10-09T12:35:00.905Z,13.10
2022-10-09T12:37:34.825Z,12.80
2022-10-09T12:40:29.791Z,12.80
2022-10-09T12:42:58.514Z,12.60
2022-10-09T12:45:30.628Z,12.60
2022-10-09T12:48:00.995Z,12.60
2022-10-09T12:50:33.106Z,12.70
2022-10-09T12:53:03.946Z,13.00
2022-10-09T12:55:36.635Z,12.80
2022-10-09T12:58:08.120Z,12.90
2022-10-09T13:00:35.828Z,13.00
2022-10-09T13:03:03.007Z,13.00
2022-10-09T13:05:41.296Z,13.00
2022-10-09T13:08:28.022Z,13.40
2022-10-09T13:10:55.743Z,13.60
2022-10-09T13:13:27.749Z,13.40
2022-10-09T13:16:00.787Z,13.10
2022-10-09T13:18:30.098Z,13.30
2022-10-09T13:21:18.086Z,13.40
2022-10-09T13:23:45.892Z,13.50
2022-10-09T13:26:27.752Z,13.60
2022-10-09T13:28:57.018Z,13.20
2022-10-09T13:31:25.035Z,12.80
2022-10-09T13:33:53.187Z,12.80
2022-10-09T13:36:20.761Z,12.90
2022-10-09T13:38:49.154Z,13.00
2022-10-09T13:41:21.401Z,13.10
2022-10-09T13:43:50.334Z,13.10
2022-10-09T13:46:17.406Z,13.20
2022-10-09T13:48:44.817Z,13.30
2022-10-09T13:51:12.204Z,13.30
2022-10-09T13:53:39.199Z,13.10
2022-10-09T13:56:08.544Z,12.90
2022-10-09T13:58:36.798Z,12.80
2022-10-09T14:01:04.035Z,12.70
2022-10-09T14:03:31.205Z,12.80
2022-10-09T14:06:03.841Z,12.70
2022-10-09T14:08:31.407Z,12.70
2022-10-09T14:11:02.020Z,12.80
2022-10-09T14:13:29.960Z,12.70
2022-10-09T14:15:57.103Z,12.70
2022-10-09T14:18:24.156Z,12.60
2022-10-09T14:20:51.336Z,12.60
2022-10-09T14:23:18.344Z,12.50
2022-10-09T14:25:45.377Z,12.50
2022-10-09T14:28:12.594Z,12.40
2022-10-09T14:30:41.538Z,12.50
2022-10-09T14:33:08.833Z,12.50
2022-10-09T14:35:36.338Z,12.50
2022-10-09T14:38:03.475Z,12.50
2022-10-09T14:40:30.858Z,12.50
2022-10-09T14:42:57.830Z,12.50
2022-10-09T14:45:25.166Z,12.40
2022-10-09T14:47:52.448Z,12.40
2022-10-09T14:50:19.537Z,12.30
2022-10-09T14:52:46.629Z,12.20
2022-10-09T14:55:13.940Z,12.20
2022-10-09T14:57:41.308Z,12.20
2022-10-09T15:00:09.069Z,12.10
2022-10-09T15:02:36.477Z,12.10
2022-10-09T15:05:04.434Z,12.00
2022-10-09T15:07:34.197Z,12.00
2022-10-09T15:10:01.776Z,12.00
2022-10-09T15:12:28.929Z,12.00
2022-10-09T15:14:56.117Z,12.00
2022-10-09T15:17:23.286Z,11.90
2022-10-09T15:19:50.276Z,12.00
2022-10-09T15:22:17.275Z,11.90
2022-10-09T15:24:44.632Z,11.90
2022-10-09T15:27:11.677Z,11.80
2022-10-09T15:29:38.764Z,11.80
2022-10-09T15:32:06.066Z,11.70
2022-10-09T15:34:33.619Z,11.70
2022-10-09T15:37:01.762Z,11.60
2022-10-09T15:39:28.967Z,11.60
2022-10-09T15:41:55.936Z,11.60
2022-10-09T15:44:22.965Z,11.50
2022-10-09T15:46:50.204Z,11.50
2022-10-09T15:49:17.945Z,11.40
2022-10-09T15:51:44.983Z,11.40
2022-10-09T15:54:14.326Z,11.30
2022-10-09T15:56:42.319Z,11.20
2022-10-09T15:59:13.451Z,11.20
2022-10-09T16:01:40.665Z,11.20
2022-10-09T16:04:07.680Z,11.10
2022-10-09T16:06:35.161Z,11.10
2022-10-09T16:09:04.092Z,11.10
2022-10-09T16:11:31.898Z,11.00
2022-10-09T16:13:59.447Z,11.00
2022-10-09T16:16:27.762Z,10.90
2022-10-09T16:18:56.288Z,10.80
2022-10-09T16:21:26.682Z,10.80
2022-10-09T16:23:58.497Z,10.70
2022-10-09T16:26:28.298Z,10.70
2022-10-09T16:28:55.557Z,10.60
2022-10-09T16:31:25.948Z,10.60
2022-10-09T16:33:53.585Z,10.50
2022-10-09T16:36:20.751Z,10.50
2022-10-09T16:38:48.375Z,10.40
2022-10-09T16:41:19.098Z,10.30
2022-10-09T16:43:48.355Z,10.30
2022-10-09T16:46:21.829Z,10.20
2022-10-09T16:48:49.689Z,10.20
2022-10-09T16:51:20.914Z,10.20
2022-10-09T16:53:52.706Z,10.20
2022-10-09T16:56:23.968Z,10.20
2022-10-09T16:58:55.614Z,10.10
2022-10-09T17:01:23.259Z,10.10
2022-10-09T17:03:50.435Z,10.00
2022-10-09T17:06:23.664Z,10.00
2022-10-09T17:08:53.552Z,10.00
2022-10-09T17:11:21.900Z,10.00
2022-10-09T17:13:49.095Z,9.90
2022-10-09T17:16:19.289Z,9.90
2022-10-09T17:18:47.687Z,9.90
2022-10-09T17:21:16.971Z,9.80
2022-10-09T17:23:44.590Z,9.60
2022-10-09T17:26:15.452Z,9.60
2022-10-09T17:28:42.986Z,9.40
2022-10-09T17:31:14.278Z,9.30
2022-10-09T17:33:44.849Z,9.20
2022-10-09T17:36:15.387Z,9.10
2022-10-09T17:38:42.449Z,9.00
2022-10-09T17:41:11.582Z,9.00
2022-10-09T17:43:39.261Z,8.80
2022-10-09T17:46:06.742Z,8.80
2022-10-09T17:48:34.705Z,8.70
2022-10-09T17:51:06.212Z,8.70
2022-10-09T17:53:33.621Z,8.60
2022-10-09T17:56:04.340Z,8.60
2022-10-09T17:58:31.351Z,8.50
2022-10-09T18:00:58.665Z,8.50
2022-10-09T18:03:25.728Z,8.40
2022-10-09T18:05:52.643Z,8.30
2022-10-09T18:08:20.063Z,8.30
2022-10-09T18:10:47.171Z,8.10
2022-10-09T18:13:14.293Z,8.00
2022-10-09T18:15:44.648Z,7.80
2022-10-09T18:18:12.213Z,7.70
2022-10-09T18:20:40.295Z,7.60
2022-10-09T18:23:08.606Z,7.60
2022-10-09T18:25:40.788Z,7.50
2022-10-09T18:28:08.293Z,7.60
2022-10-09T18:30:41.193Z,7.60
2022-10-09T18:33:08.180Z,7.60
2022-10-09T18:35:36.823Z,7.60
2022-10-09T18:38:04.896Z,7.60
2022-10-09T18:40:33.168Z,7.50
2022-10-09T18:43:00.242Z,7.50
2022-10-09T18:45:28.056Z,7.50
2022-10-09T18:47:55.539Z,7.50
2022-10-09T18:50:23.499Z,7.40
2022-10-09T18:52:50.962Z,7.40
2022-10-09T18:55:19.139Z,7.40
2022-10-09T18:57:47.054Z,7.30
2022-10-09T19:00:15.647Z,7.30
2022-10-09T19:02:42.850Z,7.10
2022-10-09T19:05:10.291Z,7.10
2022-10-09T19:07:37.470Z,7.00
2022-10-09T19:10:06.847Z,7.00
2022-10-09T19:12:33.856Z,7.00
2022-10-09T19:15:01.257Z,7.00
2022-10-09T19:17:28.274Z,7.00
2022-10-09T19:19:56.147Z,6.90
2022-10-09T19:22:24.154Z,6.90
2022-10-09T19:24:51.536Z,6.90
2022-10-09T19:27:18.756Z,6.80
2022-10-09T19:29:45.953Z,6.80
2022-10-09T19:32:13.447Z,6.70
2022-10-09T19:34:40.464Z,6.60
2022-10-09T19:37:07.656Z,6.60
2022-10-09T19:39:34.693Z,6.50
2022-10-09T19:42:02.067Z,6.40
2022-10-09T19:44:29.171Z,6.40
2022-10-09T19:46:56.488Z,6.40
2022-10-09T19:49:23.483Z,6.40
2022-10-09T19:51:50.835Z,6.40
2022-10-09T19:54:17.904Z,6.40
2022-10-09T19:56:45.076Z,6.30
2022-10-09T19:59:12.140Z,6.20
2022-10-09T20:01:40.456Z,6.20
2022-10-09T20:04:10.364Z,6.10
2022-10-09T20:06:40.270Z,6.10
2022-10-09T20:09:08.220Z,6.00
2022-10-09T20:11:35.489Z,5.90
2022-10-09T20:14:03.814Z,5.90
2022-10-09T20:16:32.210Z,5.90
2022-10-09T20:19:01.646Z,5.90
2022-10-09T20:21:31.187Z,5.90
2022-10-09T20:23:59.440Z,5.90
2022-10-09T20:26:27.090Z,5.80
2022-10-09T20:28:54.203Z,5.70
2022-10-09T20:31:24.094Z,5.70
2022-10-09T20:33:52.508Z,5.70
2022-10-09T20:36:28.448Z,5.70
2022-10-09T20:39:00.458Z,5.60
2022-10-09T20:41:30.233Z,5.60
2022-10-09T20:43:59.483Z,5.60
2022-10-09T20:46:29.444Z,5.70
2022-10-09T20:48:57.274Z,5.70
2022-10-09T20:51:25.601Z,5.70
2022-10-09T20:53:58.135Z,5.70
2022-10-09T20:56:27.750Z,5.70
2022-10-09T20:58:55.740Z,5.70
2022-10-09T21:01:23.730Z,5.70
2022-10-09T21:03:51.183Z,5.60
2022-10-09T21:06:21.147Z,5.60
2022-10-09T21:08:48.408Z,5.60
2022-10-09T21:11:19.913Z,5.60
2022-10-09T21:13:48.486Z,5.50
2022-10-09T21:16:21.803Z,5.50
2022-10-09T21:18:53.277Z,5.50
2022-10-09T21:21:20.578Z,5.50
2022-10-09T21:23:50.987Z,5.40
2022-10-09T21:26:20.154Z,5.50
2022-10-09T21:28:47.364Z,5.40
2022-10-09T21:31:23.405Z,5.40
2022-10-09T21:33:50.732Z,5.30
2022-10-09T21:37:16.415Z,5.20
2022-10-09T21:39:38.305Z,5.20
2022-10-09T21:42:05.634Z,5.20
2022-10-09T21:44:32.709Z,5.20
2022-10-09T21:46:59.851Z,5.10
2022-10-09T21:49:27.705Z,5.10
2022-10-09T21:51:55.603Z,5.00
2022-10-09T21:54:22.677Z,5.10
2022-10-09T21:56:49.767Z,5.10
2022-10-09T21:59:17.019Z,5.10
2022-10-09T22:01:44.140Z,5.10
2022-10-09T22:04:11.190Z,5.00
2022-10-09T22:06:38.430Z,5.00
2022-10-09T22:09:05.443Z,4.90
2022-10-09T22:11:32.616Z,4.90
2022-10-09T22:13:59.619Z,4.90
2022-10-09T22:16:26.569Z,4.80
2022-10-09T22:18:53.785Z,4.80
2022-10-09T22:21:22.849Z,4.80
2022-10-09T22:23:50.649Z,4.80
2022-10-09T22:26:20.729Z,4.80
2022-10-09T22:28:49.169Z,4.80
2022-10-09T22:31:21.899Z,4.80
2022-10-09T22:34:00.071Z,4.70
2022-10-09T22:36:30.002Z,4.70
2022-10-09T22:38:58.824Z,4.70
2022-10-09T22:41:27.587Z,4.70
2022-10-09T22:43:57.444Z,4.70
2022-10-09T22:46:33.118Z,4.70
2022-10-09T22:49:00.994Z,4.70
2022-10-09T22:51:29.799Z,4.60
2022-10-09T22:53:58.627Z,4.60
2022-10-09T22:56:30.140Z,4.50
2022-10-09T22:58:59.135Z,4.40
2022-10-09T23:01:39.752Z,4.40
2022-10-09T23:04:10.695Z,4.30
2022-10-09T23:06:38.090Z,4.30
2022-10-09T23:09:06.967Z,4.30
2022-10-09T23:11:34.597Z,4.30
2022-10-09T23:14:02.545Z,4.30
2022-10-09T23:16:30.597Z,4.20
2022-10-09T23:19:04.177Z,4.20
2022-10-09T23:21:33.485Z,4.20
2022-10-09T23:24:00.713Z,4.20
2022-10-09T23:26:30.582Z,4.10
2022-10-09T23:29:00.874Z,4.00
2022-10-09T23:31:29.041Z,4.00
2022-10-09T23:33:57.117Z,3.90
2022-10-09T23:36:26.700Z,3.80
2022-10-09T23:38:54.895Z,3.80
2022-10-09T23:41:25.476Z,3.90
2022-10-09T23:43:53.618Z,3.90
2022-10-09T23:46:26.441Z,3.90
2022-10-09T23:48:54.442Z,3.90
2022-10-09T23:51:23.046Z,3.90
2022-10-09T23:53:50.353Z,4.00
2022-10-09T23:56:23.230Z,4.00
2022-10-09T23:58:51.919Z,4.00
